sensor_id;sensor_type;location;lat;lon;timestamp;P1;durP1;ratioP1;P2;durP2;ratioP2
51174;SDS011;37240;50.104;20.010;2023-12-28T00:02:02;91.53;;;32.25;;
51174;SDS011;37240;50.104;20.010;2023-12-28T00:07:02;83.80;;;31.08;;
51174;SDS011;37240;50.104;20.010;2023-12-28T00:12:03;93.90;;;30.70;;
51174;SDS011;37240;50.104;20.010;2023-12-28T00:17:04;100.38;;;32.10;;
51174;SDS011;37240;50.104;20.010;2023-12-28T00:22:05;103.70;;;34.72;;
51174;SDS011;37240;50.104;20.010;2023-12-28T00:27:05;109.53;;;33.00;;
51174;SDS011;37240;50.104;20.010;2023-12-28T00:32:06;91.85;;;31.48;;
51174;SDS011;37240;50.104;20.010;2023-12-28T00:37:07;99.63;;;31.95;;
51174;SDS011;37240;50.104;20.010;2023-12-28T00:42:07;82.78;;;30.75;;
51174;SDS011;37240;50.104;20.010;2023-12-28T00:47:08;91.80;;;29.80;;
51174;SDS011;37240;50.104;20.010;2023-12-28T00:52:08;97.65;;;30.85;;
51174;SDS011;37240;50.104;20.010;2023-12-28T00:57:09;90.88;;;32.05;;
51174;SDS011;37240;50.104;20.010;2023-12-28T01:02:09;90.45;;;29.35;;
51174;SDS011;37240;50.104;20.010;2023-12-28T01:07:10;91.20;;;30.55;;
51174;SDS011;37240;50.104;20.010;2023-12-28T01:12:10;81.38;;;29.63;;
51174;SDS011;37240;50.104;20.010;2023-12-28T01:17:11;94.75;;;30.08;;
51174;SDS011;37240;50.104;20.010;2023-12-28T01:22:11;91.18;;;30.45;;
51174;SDS011;37240;50.104;20.010;2023-12-28T01:27:12;87.93;;;28.70;;
51174;SDS011;37240;50.104;20.010;2023-12-28T01:32:12;88.47;;;30.33;;
51174;SDS011;37240;50.104;20.010;2023-12-28T01:37:13;84.60;;;28.88;;
51174;SDS011;37240;50.104;20.010;2023-12-28T01:42:13;76.40;;;26.17;;
51174;SDS011;37240;50.104;20.010;2023-12-28T01:47:14;91.00;;;30.65;;
51174;SDS011;37240;50.104;20.010;2023-12-28T01:52:14;76.93;;;27.38;;
51174;SDS011;37240;50.104;20.010;2023-12-28T01:57:15;94.80;;;29.98;;
51174;SDS011;37240;50.104;20.010;2023-12-28T02:02:16;89.38;;;30.95;;
51174;SDS011;37240;50.104;20.010;2023-12-28T02:07:17;95.28;;;30.60;;
51174;SDS011;37240;50.104;20.010;2023-12-28T02:12:20;89.63;;;29.02;;
51174;SDS011;37240;50.104;20.010;2023-12-28T02:17:32;79.60;;;27.70;;
51174;SDS011;37240;50.104;20.010;2023-12-28T02:22:52;92.22;;;29.15;;
51174;SDS011;37240;50.104;20.010;2023-12-28T02:27:53;78.72;;;27.88;;
51174;SDS011;37240;50.104;20.010;2023-12-28T02:33:15;85.38;;;29.20;;
51174;SDS011;37240;50.104;20.010;2023-12-28T02:38:26;99.55;;;30.92;;
51174;SDS011;37240;50.104;20.010;2023-12-28T02:43:29;81.50;;;29.05;;
51174;SDS011;37240;50.104;20.010;2023-12-28T02:48:30;83.85;;;28.08;;
51174;SDS011;37240;50.104;20.010;2023-12-28T02:53:31;80.32;;;29.33;;
51174;SDS011;37240;50.104;20.010;2023-12-28T02:58:31;90.68;;;28.60;;
51174;SDS011;37240;50.104;20.010;2023-12-28T03:03:32;92.60;;;29.98;;
51174;SDS011;37240;50.104;20.010;2023-12-28T03:08:32;90.43;;;28.52;;
51174;SDS011;37240;50.104;20.010;2023-12-28T03:13:33;93.82;;;29.10;;
51174;SDS011;37240;50.104;20.010;2023-12-28T03:18:33;72.07;;;24.40;;
51174;SDS011;37240;50.104;20.010;2023-12-28T03:23:34;77.85;;;25.85;;
51174;SDS011;37240;50.104;20.010;2023-12-28T03:28:34;74.07;;;25.42;;
51174;SDS011;37240;50.104;20.010;2023-12-28T03:33:35;78.68;;;28.15;;
51174;SDS011;37240;50.104;20.010;2023-12-28T03:38:35;77.65;;;25.15;;
51174;SDS011;37240;50.104;20.010;2023-12-28T03:43:36;69.18;;;25.15;;
51174;SDS011;37240;50.104;20.010;2023-12-28T03:48:36;75.60;;;25.25;;
51174;SDS011;37240;50.104;20.010;2023-12-28T03:53:37;72.93;;;24.45;;
51174;SDS011;37240;50.104;20.010;2023-12-28T03:58:38;71.45;;;24.98;;
51174;SDS011;37240;50.104;20.010;2023-12-28T04:03:38;70.35;;;23.45;;
51174;SDS011;37240;50.104;20.010;2023-12-28T04:08:39;72.43;;;24.73;;
51174;SDS011;37240;50.104;20.010;2023-12-28T04:13:40;69.95;;;23.80;;
51174;SDS011;37240;50.104;20.010;2023-12-28T04:18:41;67.65;;;23.27;;
51174;SDS011;37240;50.104;20.010;2023-12-28T04:23:42;70.97;;;22.67;;
51174;SDS011;37240;50.104;20.010;2023-12-28T04:28:42;70.68;;;21.98;;
51174;SDS011;37240;50.104;20.010;2023-12-28T04:33:43;73.97;;;24.52;;
51174;SDS011;37240;50.104;20.010;2023-12-28T04:38:43;67.28;;;24.45;;
51174;SDS011;37240;50.104;20.010;2023-12-28T04:43:44;78.70;;;25.60;;
51174;SDS011;37240;50.104;20.010;2023-12-28T04:48:44;81.22;;;27.08;;
51174;SDS011;37240;50.104;20.010;2023-12-28T04:53:45;81.80;;;27.80;;
51174;SDS011;37240;50.104;20.010;2023-12-28T04:58:45;80.78;;;27.85;;
51174;SDS011;37240;50.104;20.010;2023-12-28T05:03:46;66.53;;;24.17;;
51174;SDS011;37240;50.104;20.010;2023-12-28T05:08:46;63.83;;;23.92;;
51174;SDS011;37240;50.104;20.010;2023-12-28T05:13:47;71.72;;;23.48;;
51174;SDS011;37240;50.104;20.010;2023-12-28T05:18:47;65.80;;;24.33;;
51174;SDS011;37240;50.104;20.010;2023-12-28T05:23:48;75.88;;;26.77;;
51174;SDS011;37240;50.104;20.010;2023-12-28T05:28:49;73.43;;;23.15;;
51174;SDS011;37240;50.104;20.010;2023-12-28T05:33:49;64.45;;;24.27;;
51174;SDS011;37240;50.104;20.010;2023-12-28T05:38:50;57.72;;;22.80;;
51174;SDS011;37240;50.104;20.010;2023-12-28T05:43:50;64.88;;;23.80;;
51174;SDS011;37240;50.104;20.010;2023-12-28T05:48:51;84.20;;;27.25;;
51174;SDS011;37240;50.104;20.010;2023-12-28T05:53:52;84.97;;;26.00;;
51174;SDS011;37240;50.104;20.010;2023-12-28T05:58:53;68.55;;;23.80;;
51174;SDS011;37240;50.104;20.010;2023-12-28T06:03:54;69.00;;;23.35;;
51174;SDS011;37240;50.104;20.010;2023-12-28T06:08:54;63.67;;;23.13;;
51174;SDS011;37240;50.104;20.010;2023-12-28T06:13:55;72.70;;;24.92;;
51174;SDS011;37240;50.104;20.010;2023-12-28T06:18:55;71.13;;;24.23;;
51174;SDS011;37240;50.104;20.010;2023-12-28T06:23:56;59.55;;;22.65;;
51174;SDS011;37240;50.104;20.010;2023-12-28T06:28:56;72.80;;;24.20;;
51174;SDS011;37240;50.104;20.010;2023-12-28T06:33:57;67.25;;;24.20;;
51174;SDS011;37240;50.104;20.010;2023-12-28T06:38:57;68.85;;;22.60;;
51174;SDS011;37240;50.104;20.010;2023-12-28T06:43:58;50.75;;;19.75;;
51174;SDS011;37240;50.104;20.010;2023-12-28T06:48:59;54.47;;;19.63;;
51174;SDS011;37240;50.104;20.010;2023-12-28T06:53:59;57.63;;;18.92;;
51174;SDS011;37240;50.104;20.010;2023-12-28T06:59:00;61.65;;;19.55;;
51174;SDS011;37240;50.104;20.010;2023-12-28T07:04:00;54.83;;;20.58;;
51174;SDS011;37240;50.104;20.010;2023-12-28T07:09:01;48.97;;;18.75;;
51174;SDS011;37240;50.104;20.010;2023-12-28T07:14:01;65.13;;;22.13;;
51174;SDS011;37240;50.104;20.010;2023-12-28T07:19:02;66.03;;;23.58;;
51174;SDS011;37240;50.104;20.010;2023-12-28T07:24:02;58.00;;;22.83;;
51174;SDS011;37240;50.104;20.010;2023-12-28T07:29:03;62.42;;;22.95;;
51174;SDS011;37240;50.104;20.010;2023-12-28T07:34:04;52.38;;;19.85;;
51174;SDS011;37240;50.104;20.010;2023-12-28T07:39:04;59.53;;;20.63;;
51174;SDS011;37240;50.104;20.010;2023-12-28T07:44:05;59.78;;;21.70;;
51174;SDS011;37240;50.104;20.010;2023-12-28T07:49:05;58.42;;;20.90;;
51174;SDS011;37240;50.104;20.010;2023-12-28T07:54:06;58.67;;;21.48;;
51174;SDS011;37240;50.104;20.010;2023-12-28T07:59:06;53.90;;;20.58;;
51174;SDS011;37240;50.104;20.010;2023-12-28T08:04:07;52.20;;;19.58;;
51174;SDS011;37240;50.104;20.010;2023-12-28T08:09:07;49.67;;;20.58;;
51174;SDS011;37240;50.104;20.010;2023-12-28T08:14:08;54.55;;;17.83;;
51174;SDS011;37240;50.104;20.010;2023-12-28T08:19:08;56.08;;;20.13;;
51174;SDS011;37240;50.104;20.010;2023-12-28T08:24:09;50.42;;;18.08;;
51174;SDS011;37240;50.104;20.010;2023-12-28T08:29:09;44.75;;;17.90;;
51174;SDS011;37240;50.104;20.010;2023-12-28T08:34:10;47.75;;;18.13;;
51174;SDS011;37240;50.104;20.010;2023-12-28T08:39:10;44.00;;;16.52;;
51174;SDS011;37240;50.104;20.010;2023-12-28T08:44:11;44.00;;;15.68;;
51174;SDS011;37240;50.104;20.010;2023-12-28T08:49:11;44.60;;;16.55;;
51174;SDS011;37240;50.104;20.010;2023-12-28T08:54:12;39.10;;;16.52;;
51174;SDS011;37240;50.104;20.010;2023-12-28T08:59:12;36.03;;;15.18;;
51174;SDS011;37240;50.104;20.010;2023-12-28T09:04:13;38.72;;;14.18;;
51174;SDS011;37240;50.104;20.010;2023-12-28T09:09:13;33.50;;;12.50;;
51174;SDS011;37240;50.104;20.010;2023-12-28T09:14:14;31.10;;;11.93;;
51174;SDS011;37240;50.104;20.010;2023-12-28T09:19:14;26.73;;;11.73;;
51174;SDS011;37240;50.104;20.010;2023-12-28T09:24:15;30.50;;;11.80;;
51174;SDS011;37240;50.104;20.010;2023-12-28T09:29:16;31.35;;;11.05;;
51174;SDS011;37240;50.104;20.010;2023-12-28T09:34:16;24.27;;;10.45;;
51174;SDS011;37240;50.104;20.010;2023-12-28T09:39:17;24.77;;;10.85;;
51174;SDS011;37240;50.104;20.010;2023-12-28T09:44:17;24.05;;;11.02;;
51174;SDS011;37240;50.104;20.010;2023-12-28T09:49:18;30.38;;;10.98;;
51174;SDS011;37240;50.104;20.010;2023-12-28T09:54:20;44.22;;;17.17;;
51174;SDS011;37240;50.104;20.010;2023-12-28T09:59:21;47.70;;;17.13;;
51174;SDS011;37240;50.104;20.010;2023-12-28T10:04:22;33.38;;;11.90;;
51174;SDS011;37240;50.104;20.010;2023-12-28T10:09:22;31.35;;;12.43;;
51174;SDS011;37240;50.104;20.010;2023-12-28T10:14:23;24.42;;;11.43;;
51174;SDS011;37240;50.104;20.010;2023-12-28T10:19:25;30.10;;;11.05;;
51174;SDS011;37240;50.104;20.010;2023-12-28T10:24:26;25.38;;;10.77;;
51174;SDS011;37240;50.104;20.010;2023-12-28T10:29:26;31.60;;;12.20;;
51174;SDS011;37240;50.104;20.010;2023-12-28T10:34:27;31.27;;;11.13;;
51174;SDS011;37240;50.104;20.010;2023-12-28T10:39:27;37.90;;;16.33;;
51174;SDS011;37240;50.104;20.010;2023-12-28T10:44:32;37.28;;;16.92;;
51174;SDS011;37240;50.104;20.010;2023-12-28T10:49:35;29.10;;;13.70;;
51174;SDS011;37240;50.104;20.010;2023-12-28T10:54:47;37.30;;;12.68;;
51174;SDS011;37240;50.104;20.010;2023-12-28T11:00:20;36.17;;;13.18;;
51174;SDS011;37240;50.104;20.010;2023-12-28T11:05:24;30.80;;;13.88;;
51174;SDS011;37240;50.104;20.010;2023-12-28T11:10:27;28.73;;;11.95;;
51174;SDS011;37240;50.104;20.010;2023-12-28T11:15:30;28.75;;;11.30;;
51174;SDS011;37240;50.104;20.010;2023-12-28T11:20:31;27.45;;;11.80;;
51174;SDS011;37240;50.104;20.010;2023-12-28T11:25:33;31.23;;;12.02;;
51174;SDS011;37240;50.104;20.010;2023-12-28T11:30:33;27.85;;;11.85;;
51174;SDS011;37240;50.104;20.010;2023-12-28T11:35:35;33.78;;;12.43;;
51174;SDS011;37240;50.104;20.010;2023-12-28T11:40:39;79.93;;;28.75;;
51174;SDS011;37240;50.104;20.010;2023-12-28T11:45:41;71.55;;;30.52;;
51174;SDS011;37240;50.104;20.010;2023-12-28T11:50:50;50.05;;;20.63;;
51174;SDS011;37240;50.104;20.010;2023-12-28T11:55:52;33.60;;;14.38;;
51174;SDS011;37240;50.104;20.010;2023-12-28T12:01:00;31.10;;;13.00;;
51174;SDS011;37240;50.104;20.010;2023-12-28T12:06:00;32.83;;;12.30;;
51174;SDS011;37240;50.104;20.010;2023-12-28T12:11:01;32.45;;;12.10;;
51174;SDS011;37240;50.104;20.010;2023-12-28T12:16:04;28.77;;;11.23;;
51174;SDS011;37240;50.104;20.010;2023-12-28T12:21:05;27.20;;;10.48;;
51174;SDS011;37240;50.104;20.010;2023-12-28T12:26:05;29.05;;;11.23;;
51174;SDS011;37240;50.104;20.010;2023-12-28T12:31:06;26.67;;;9.45;;
51174;SDS011;37240;50.104;20.010;2023-12-28T12:36:08;20.58;;;8.48;;
51174;SDS011;37240;50.104;20.010;2023-12-28T12:41:12;22.00;;;8.65;;
51174;SDS011;37240;50.104;20.010;2023-12-28T12:46:13;21.95;;;9.10;;
51174;SDS011;37240;50.104;20.010;2023-12-28T12:51:14;59.08;;;23.58;;
51174;SDS011;37240;50.104;20.010;2023-12-28T12:56:17;46.42;;;18.33;;
51174;SDS011;37240;50.104;20.010;2023-12-28T13:01:19;36.30;;;13.60;;
51174;SDS011;37240;50.104;20.010;2023-12-28T13:06:20;20.77;;;9.98;;
51174;SDS011;37240;50.104;20.010;2023-12-28T13:11:20;29.92;;;10.70;;
51174;SDS011;37240;50.104;20.010;2023-12-28T13:16:21;26.52;;;10.35;;
51174;SDS011;37240;50.104;20.010;2023-12-28T13:21:21;22.75;;;9.45;;
51174;SDS011;37240;50.104;20.010;2023-12-28T13:26:22;30.83;;;12.20;;
51174;SDS011;37240;50.104;20.010;2023-12-28T13:31:22;31.65;;;11.73;;
51174;SDS011;37240;50.104;20.010;2023-12-28T13:36:23;28.17;;;10.70;;
51174;SDS011;37240;50.104;20.010;2023-12-28T13:41:23;25.73;;;9.75;;
51174;SDS011;37240;50.104;20.010;2023-12-28T13:46:24;22.73;;;8.93;;
51174;SDS011;37240;50.104;20.010;2023-12-28T13:51:24;23.58;;;9.55;;
51174;SDS011;37240;50.104;20.010;2023-12-28T13:56:25;25.20;;;9.02;;
51174;SDS011;37240;50.104;20.010;2023-12-28T14:01:25;23.00;;;10.20;;
51174;SDS011;37240;50.104;20.010;2023-12-28T14:06:26;26.80;;;10.20;;
51174;SDS011;37240;50.104;20.010;2023-12-28T14:11:27;23.08;;;9.30;;
51174;SDS011;37240;50.104;20.010;2023-12-28T14:16:27;26.98;;;9.18;;
51174;SDS011;37240;50.104;20.010;2023-12-28T14:21:28;29.00;;;10.90;;
51174;SDS011;37240;50.104;20.010;2023-12-28T14:26:28;25.13;;;8.98;;
51174;SDS011;37240;50.104;20.010;2023-12-28T14:31:32;23.48;;;8.90;;
51174;SDS011;37240;50.104;20.010;2023-12-28T14:36:34;38.13;;;13.18;;
51174;SDS011;37240;50.104;20.010;2023-12-28T14:41:36;50.50;;;15.82;;
51174;SDS011;37240;50.104;20.010;2023-12-28T14:46:37;30.20;;;10.77;;
51174;SDS011;37240;50.104;20.010;2023-12-28T14:51:37;32.28;;;10.85;;
51174;SDS011;37240;50.104;20.010;2023-12-28T14:56:38;24.55;;;8.55;;
51174;SDS011;37240;50.104;20.010;2023-12-28T15:01:39;21.75;;;7.97;;
51174;SDS011;37240;50.104;20.010;2023-12-28T15:06:39;14.45;;;6.57;;
51174;SDS011;37240;50.104;20.010;2023-12-28T15:11:40;14.20;;;7.78;;
51174;SDS011;37240;50.104;20.010;2023-12-28T15:16:41;23.70;;;9.27;;
51174;SDS011;37240;50.104;20.010;2023-12-28T15:21:41;35.25;;;11.60;;
51174;SDS011;37240;50.104;20.010;2023-12-28T15:26:42;35.55;;;11.32;;
51174;SDS011;37240;50.104;20.010;2023-12-28T15:31:43;25.90;;;8.57;;
51174;SDS011;37240;50.104;20.010;2023-12-28T15:36:43;29.58;;;8.32;;
51174;SDS011;37240;50.104;20.010;2023-12-28T15:41:44;21.25;;;7.72;;
51174;SDS011;37240;50.104;20.010;2023-12-28T15:46:44;19.20;;;7.80;;
51174;SDS011;37240;50.104;20.010;2023-12-28T15:51:45;16.75;;;7.57;;
51174;SDS011;37240;50.104;20.010;2023-12-28T15:56:45;16.13;;;7.65;;
51174;SDS011;37240;50.104;20.010;2023-12-28T16:01:46;22.88;;;7.22;;
51174;SDS011;37240;50.104;20.010;2023-12-28T16:06:46;42.80;;;17.15;;
51174;SDS011;37240;50.104;20.010;2023-12-28T16:11:47;27.80;;;12.82;;
51174;SDS011;37240;50.104;20.010;2023-12-28T16:16:48;27.77;;;11.27;;
51174;SDS011;37240;50.104;20.010;2023-12-28T16:21:49;18.52;;;7.85;;
51174;SDS011;37240;50.104;20.010;2023-12-28T16:26:49;43.92;;;16.85;;
51174;SDS011;37240;50.104;20.010;2023-12-28T16:31:51;39.42;;;15.55;;
51174;SDS011;37240;50.104;20.010;2023-12-28T16:36:51;32.17;;;11.05;;
51174;SDS011;37240;50.104;20.010;2023-12-28T16:41:52;21.02;;;8.70;;
51174;SDS011;37240;50.104;20.010;2023-12-28T16:46:52;24.15;;;8.50;;
51174;SDS011;37240;50.104;20.010;2023-12-28T16:51:53;20.00;;;8.00;;
51174;SDS011;37240;50.104;20.010;2023-12-28T16:56:53;22.40;;;9.10;;
51174;SDS011;37240;50.104;20.010;2023-12-28T17:01:54;21.52;;;8.23;;
51174;SDS011;37240;50.104;20.010;2023-12-28T17:06:54;22.40;;;7.78;;
51174;SDS011;37240;50.104;20.010;2023-12-28T17:12:11;36.70;;;15.80;;
51174;SDS011;37240;50.104;20.010;2023-12-28T17:17:18;38.25;;;16.00;;
51174;SDS011;37240;50.104;20.010;2023-12-28T17:22:19;41.75;;;14.95;;
51174;SDS011;37240;50.104;20.010;2023-12-28T17:27:27;23.40;;;10.47;;
51174;SDS011;37240;50.104;20.010;2023-12-28T17:32:32;25.83;;;8.40;;
51174;SDS011;37240;50.104;20.010;2023-12-28T17:37:33;17.35;;;8.13;;
51174;SDS011;37240;50.104;20.010;2023-12-28T17:42:34;18.88;;;8.40;;
51174;SDS011;37240;50.104;20.010;2023-12-28T17:48:00;21.60;;;8.52;;
51174;SDS011;37240;50.104;20.010;2023-12-28T17:53:06;22.35;;;8.63;;
51174;SDS011;37240;50.104;20.010;2023-12-28T17:58:06;21.00;;;8.85;;
51174;SDS011;37240;50.104;20.010;2023-12-28T18:03:07;26.85;;;9.18;;
51174;SDS011;37240;50.104;20.010;2023-12-28T18:08:07;22.15;;;8.50;;
51174;SDS011;37240;50.104;20.010;2023-12-28T18:13:08;24.48;;;9.73;;
51174;SDS011;37240;50.104;20.010;2023-12-28T18:18:09;29.20;;;11.68;;
51174;SDS011;37240;50.104;20.010;2023-12-28T18:23:09;26.17;;;10.70;;
51174;SDS011;37240;50.104;20.010;2023-12-28T18:28:10;22.45;;;9.95;;
51174;SDS011;37240;50.104;20.010;2023-12-28T18:33:10;24.83;;;8.93;;
51174;SDS011;37240;50.104;20.010;2023-12-28T18:38:11;25.23;;;8.85;;
51174;SDS011;37240;50.104;20.010;2023-12-28T18:43:12;18.33;;;8.35;;
51174;SDS011;37240;50.104;20.010;2023-12-28T18:48:13;22.92;;;9.75;;
51174;SDS011;37240;50.104;20.010;2023-12-28T18:53:14;22.23;;;9.77;;
51174;SDS011;37240;50.104;20.010;2023-12-28T18:58:14;22.73;;;8.77;;
51174;SDS011;37240;50.104;20.010;2023-12-28T19:03:15;26.55;;;11.45;;
51174;SDS011;37240;50.104;20.010;2023-12-28T19:08:15;27.27;;;10.65;;
51174;SDS011;37240;50.104;20.010;2023-12-28T19:13:16;25.60;;;10.90;;
51174;SDS011;37240;50.104;20.010;2023-12-28T19:18:16;32.28;;;11.63;;
51174;SDS011;37240;50.104;20.010;2023-12-28T19:23:17;29.40;;;11.57;;
51174;SDS011;37240;50.104;20.010;2023-12-28T19:28:17;30.27;;;11.23;;
51174;SDS011;37240;50.104;20.010;2023-12-28T19:33:18;28.05;;;10.60;;
51174;SDS011;37240;50.104;20.010;2023-12-28T19:38:18;26.05;;;10.65;;
51174;SDS011;37240;50.104;20.010;2023-12-28T19:43:19;34.10;;;12.43;;
51174;SDS011;37240;50.104;20.010;2023-12-28T19:48:20;51.00;;;20.02;;
51174;SDS011;37240;50.104;20.010;2023-12-28T19:53:20;44.35;;;18.38;;
51174;SDS011;37240;50.104;20.010;2023-12-28T19:58:21;40.40;;;16.08;;
51174;SDS011;37240;50.104;20.010;2023-12-28T20:03:21;35.60;;;13.63;;
51174;SDS011;37240;50.104;20.010;2023-12-28T20:08:22;41.70;;;13.88;;
51174;SDS011;37240;50.104;20.010;2023-12-28T20:13:22;35.60;;;13.63;;
51174;SDS011;37240;50.104;20.010;2023-12-28T20:18:23;37.75;;;15.27;;
51174;SDS011;37240;50.104;20.010;2023-12-28T20:23:23;38.88;;;15.32;;
51174;SDS011;37240;50.104;20.010;2023-12-28T20:28:24;38.75;;;15.88;;
51174;SDS011;37240;50.104;20.010;2023-12-28T20:33:25;43.55;;;15.48;;
51174;SDS011;37240;50.104;20.010;2023-12-28T20:38:25;34.83;;;14.77;;
51174;SDS011;37240;50.104;20.010;2023-12-28T20:43:26;42.22;;;15.13;;
51174;SDS011;37240;50.104;20.010;2023-12-28T20:48:26;51.17;;;18.08;;
51174;SDS011;37240;50.104;20.010;2023-12-28T20:53:27;45.60;;;17.45;;
51174;SDS011;37240;50.104;20.010;2023-12-28T20:58:27;39.95;;;16.55;;
51174;SDS011;37240;50.104;20.010;2023-12-28T21:03:28;53.75;;;20.63;;
51174;SDS011;37240;50.104;20.010;2023-12-28T21:08:28;47.72;;;19.33;;
51174;SDS011;37240;50.104;20.010;2023-12-28T21:13:29;51.33;;;18.67;;
51174;SDS011;37240;50.104;20.010;2023-12-28T21:18:30;51.28;;;17.60;;
51174;SDS011;37240;50.104;20.010;2023-12-28T21:23:30;42.78;;;17.33;;
51174;SDS011;37240;50.104;20.010;2023-12-28T21:28:31;44.50;;;16.50;;
51174;SDS011;37240;50.104;20.010;2023-12-28T21:33:31;40.83;;;16.13;;
51174;SDS011;37240;50.104;20.010;2023-12-28T21:38:32;46.97;;;18.45;;
51174;SDS011;37240;50.104;20.010;2023-12-28T21:43:32;46.72;;;16.63;;
51174;SDS011;37240;50.104;20.010;2023-12-28T21:48:33;45.88;;;17.73;;
51174;SDS011;37240;50.104;20.010;2023-12-28T21:53:33;50.10;;;18.55;;
51174;SDS011;37240;50.104;20.010;2023-12-28T21:58:34;42.97;;;18.63;;
51174;SDS011;37240;50.104;20.010;2023-12-28T22:03:35;44.85;;;18.17;;
51174;SDS011;37240;50.104;20.010;2023-12-28T22:08:35;44.72;;;17.80;;
51174;SDS011;37240;50.104;20.010;2023-12-28T22:13:36;66.05;;;26.10;;
51174;SDS011;37240;50.104;20.010;2023-12-28T22:18:36;57.03;;;22.45;;
51174;SDS011;37240;50.104;20.010;2023-12-28T22:23:37;53.75;;;19.90;;
51174;SDS011;37240;50.104;20.010;2023-12-28T22:28:37;47.35;;;17.17;;
51174;SDS011;37240;50.104;20.010;2023-12-28T22:33:38;47.65;;;17.75;;
51174;SDS011;37240;50.104;20.010;2023-12-28T22:38:38;51.78;;;17.15;;
51174;SDS011;37240;50.104;20.010;2023-12-28T22:43:39;45.03;;;16.67;;
51174;SDS011;37240;50.104;20.010;2023-12-28T22:48:40;50.28;;;17.80;;
51174;SDS011;37240;50.104;20.010;2023-12-28T22:53:40;48.70;;;18.10;;
51174;SDS011;37240;50.104;20.010;2023-12-28T22:58:41;46.58;;;17.27;;
51174;SDS011;37240;50.104;20.010;2023-12-28T23:03:41;54.45;;;18.92;;
51174;SDS011;37240;50.104;20.010;2023-12-28T23:08:42;51.85;;;19.05;;
51174;SDS011;37240;50.104;20.010;2023-12-28T23:13:42;55.22;;;19.52;;
51174;SDS011;37240;50.104;20.010;2023-12-28T23:18:43;54.20;;;20.90;;
51174;SDS011;37240;50.104;20.010;2023-12-28T23:23:43;54.05;;;21.08;;
51174;SDS011;37240;50.104;20.010;2023-12-28T23:28:44;64.20;;;23.42;;
51174;SDS011;37240;50.104;20.010;2023-12-28T23:33:44;61.95;;;22.50;;
51174;SDS011;37240;50.104;20.010;2023-12-28T23:38:45;56.80;;;21.90;;
51174;SDS011;37240;50.104;20.010;2023-12-28T23:43:46;54.10;;;21.05;;
51174;SDS011;37240;50.104;20.010;2023-12-28T23:48:46;51.55;;;19.83;;
51174;SDS011;37240;50.104;20.010;2023-12-28T23:53:47;53.40;;;19.48;;
51174;SDS011;37240;50.104;20.010;2023-12-28T23:58:48;53.40;;;21.20;;
